sensor_id;sensor_type;location;lat;lon;timestamp;pressure;altitude;pressure_sealevel;temperature
79632;BMP280;69108;41.120;16.874;2023-12-29T00:01:29;102664.25;;;12.58
79632;BMP280;69108;41.120;16.874;2023-12-29T00:03:56;102655.28;;;12.54
79632;BMP280;69108;41.120;16.874;2023-12-29T00:06:22;102651.03;;;12.53
79632;BMP280;69108;41.120;16.874;2023-12-29T00:08:49;102649.91;;;12.51
79632;BMP280;69108;41.120;16.874;2023-12-29T00:11:17;102660.31;;;12.48
79632;BMP280;69108;41.120;16.874;2023-12-29T00:13:43;102660.69;;;12.47
79632;BMP280;69108;41.120;16.874;2023-12-29T00:16:10;102644.03;;;12.45
79632;BMP280;69108;41.120;16.874;2023-12-29T00:18:38;102656.81;;;12.41
79632;BMP280;69108;41.120;16.874;2023-12-29T00:21:05;102656.41;;;12.39
79632;BMP280;69108;41.120;16.874;2023-12-29T00:23:32;102661.81;;;12.35
79632;BMP280;69108;41.120;16.874;2023-12-29T00:25:59;102659.88;;;12.32
79632;BMP280;69108;41.120;16.874;2023-12-29T00:28:26;102655.59;;;12.31
79632;BMP280;69108;41.120;16.874;2023-12-29T00:30:53;102660.66;;;12.29
79632;BMP280;69108;41.120;16.874;2023-12-29T00:33:20;102655.63;;;12.28
79632;BMP280;69108;41.120;16.874;2023-12-29T00:35:48;102663.75;;;12.28
79632;BMP280;69108;41.120;16.874;2023-12-29T00:38:14;102665.25;;;12.25
79632;BMP280;69108;41.120;16.874;2023-12-29T00:40:41;102662.94;;;12.24
79632;BMP280;69108;41.120;16.874;2023-12-29T00:43:08;102655.94;;;12.16
79632;BMP280;69108;41.120;16.874;2023-12-29T00:45:35;102661.38;;;12.19
79632;BMP280;69108;41.120;16.874;2023-12-29T00:48:02;102672.22;;;12.19
79632;BMP280;69108;41.120;16.874;2023-12-29T00:50:29;102671.03;;;12.17
79632;BMP280;69108;41.120;16.874;2023-12-29T00:52:57;102667.94;;;12.15
79632;BMP280;69108;41.120;16.874;2023-12-29T00:55:23;102676.44;;;12.13
79632;BMP280;69108;41.120;16.874;2023-12-29T00:57:50;102678.38;;;12.13
79632;BMP280;69108;41.120;16.874;2023-12-29T01:00:17;102683.38;;;12.11
79632;BMP280;69108;41.120;16.874;2023-12-29T01:02:44;102674.06;;;12.05
79632;BMP280;69108;41.120;16.874;2023-12-29T01:05:14;102676.78;;;12.05
79632;BMP280;69108;41.120;16.874;2023-12-29T01:07:41;102678.69;;;12.01
79632;BMP280;69108;41.120;16.874;2023-12-29T01:10:10;102678.69;;;12.01
79632;BMP280;69108;41.120;16.874;2023-12-29T01:12:37;102669.38;;;11.95
79632;BMP280;69108;41.120;16.874;2023-12-29T01:15:05;102671.69;;;11.96
79632;BMP280;69108;41.120;16.874;2023-12-29T01:17:32;102675.97;;;11.94
79632;BMP280;69108;41.120;16.874;2023-12-29T01:19:59;102680.94;;;11.92
79632;BMP280;69108;41.120;16.874;2023-12-29T01:22:28;102676.28;;;11.89
79632;BMP280;69108;41.120;16.874;2023-12-29T01:24:55;102682.88;;;11.88
79632;BMP280;69108;41.120;16.874;2023-12-29T01:27:23;102679.75;;;11.86
79632;BMP280;69108;41.120;16.874;2023-12-29T01:29:50;102683.97;;;11.83
79632;BMP280;69108;41.120;16.874;2023-12-29T01:32:18;102685.53;;;11.81
79632;BMP280;69108;41.120;16.874;2023-12-29T01:34:44;102673.91;;;11.80
79632;BMP280;69108;41.120;16.874;2023-12-29T01:37:11;102677.00;;;11.79
79632;BMP280;69108;41.120;16.874;2023-12-29T01:39:38;102671.59;;;11.79
79632;BMP280;69108;41.120;16.874;2023-12-29T01:42:05;102668.88;;;11.79
79632;BMP280;69108;41.120;16.874;2023-12-29T01:44:33;102668.50;;;11.77
79632;BMP280;69108;41.120;16.874;2023-12-29T01:47:00;102666.56;;;11.74
79632;BMP280;69108;41.120;16.874;2023-12-29T01:49:27;102664.19;;;11.72
79632;BMP280;69108;41.120;16.874;2023-12-29T01:51:57;102661.88;;;11.71
79632;BMP280;69108;41.120;16.874;2023-12-29T01:54:26;102663.00;;;11.70
79632;BMP280;69108;41.120;16.874;2023-12-29T01:56:54;102659.53;;;11.69
79632;BMP280;69108;41.120;16.874;2023-12-29T01:59:24;102659.16;;;11.67
79632;BMP280;69108;41.120;16.874;2023-12-29T02:01:53;102656.44;;;11.67
79632;BMP280;69108;41.120;16.874;2023-12-29T02:04:23;102642.09;;;11.63
79632;BMP280;69108;41.120;16.874;2023-12-29T02:06:50;102651.78;;;11.68
79632;BMP280;69108;41.120;16.874;2023-12-29T02:09:17;102646.38;;;11.68
79632;BMP280;69108;41.120;16.874;2023-12-29T02:11:44;102645.63;;;11.67
79632;BMP280;69108;41.120;16.874;2023-12-29T02:14:11;102642.13;;;11.67
79632;BMP280;69108;41.120;16.874;2023-12-29T02:16:42;102644.44;;;11.68
79632;BMP280;69108;41.120;16.874;2023-12-29T02:19:25;102640.22;;;11.71
79632;BMP280;69108;41.120;16.874;2023-12-29T02:21:52;102645.25;;;11.72
79632;BMP280;69108;41.120;16.874;2023-12-29T02:24:18;102630.94;;;11.72
79632;BMP280;69108;41.120;16.874;2023-12-29T02:26:50;102630.94;;;11.72
79632;BMP280;69108;41.120;16.874;2023-12-29T02:29:21;102631.38;;;11.74
79632;BMP280;69108;41.120;16.874;2023-12-29T02:31:52;102626.31;;;11.76
79632;BMP280;69108;41.120;16.874;2023-12-29T02:34:22;102630.94;;;11.75
79632;BMP280;69108;41.120;16.874;2023-12-29T02:36:50;102623.59;;;11.76
79632;BMP280;69108;41.120;16.874;2023-12-29T02:39:17;102622.06;;;11.75
79632;BMP280;69108;41.120;16.874;2023-12-29T02:41:44;102620.91;;;11.76
79632;BMP280;69108;41.120;16.874;2023-12-29T02:44:13;102615.13;;;11.74
79632;BMP280;69108;41.120;16.874;2023-12-29T02:46:40;102612.00;;;11.75
79632;BMP280;69108;41.120;16.874;2023-12-29T02:49:07;102604.28;;;11.74
79632;BMP280;69108;41.120;16.874;2023-12-29T02:51:38;102602.34;;;11.74
79632;BMP280;69108;41.120;16.874;2023-12-29T02:54:05;102601.59;;;11.74
79632;BMP280;69108;41.120;16.874;2023-12-29T02:56:33;102593.81;;;11.72
79632;BMP280;69108;41.120;16.874;2023-12-29T02:59:00;102596.91;;;11.71
79632;BMP280;69108;41.120;16.874;2023-12-29T03:01:28;102592.28;;;11.71
79632;BMP280;69108;41.120;16.874;2023-12-29T03:03:55;102593.03;;;11.72
79632;BMP280;69108;41.120;16.874;2023-12-29T03:06:21;102594.22;;;11.71
79632;BMP280;69108;41.120;16.874;2023-12-29T03:08:48;102584.16;;;11.71
79632;BMP280;69108;41.120;16.874;2023-12-29T03:11:15;102580.28;;;11.72
79632;BMP280;69108;41.120;16.874;2023-12-29T03:13:42;102584.56;;;11.73
79632;BMP280;69108;41.120;16.874;2023-12-29T03:16:09;102579.50;;;11.75
79632;BMP280;69108;41.120;16.874;2023-12-29T03:18:38;102582.22;;;11.75
79632;BMP280;69108;41.120;16.874;2023-12-29T03:21:06;102581.88;;;11.77
79632;BMP280;69108;41.120;16.874;2023-12-29T03:23:33;102577.97;;;11.78
79632;BMP280;69108;41.120;16.874;2023-12-29T03:26:00;102575.72;;;11.80
79632;BMP280;69108;41.120;16.874;2023-12-29T03:28:28;102572.19;;;11.83
79632;BMP280;69108;41.120;16.874;2023-12-29T03:30:55;102571.06;;;11.84
79632;BMP280;69108;41.120;16.874;2023-12-29T03:33:21;102574.16;;;11.86
79632;BMP280;69108;41.120;16.874;2023-12-29T03:35:49;102570.31;;;11.87
79632;BMP280;69108;41.120;16.874;2023-12-29T03:38:16;102573.41;;;11.89
79632;BMP280;69108;41.120;16.874;2023-12-29T03:40:43;102564.91;;;11.90
79632;BMP280;69108;41.120;16.874;2023-12-29T03:43:10;102565.69;;;11.91
79632;BMP280;69108;41.120;16.874;2023-12-29T03:45:36;102568.41;;;11.94
79632;BMP280;69108;41.120;16.874;2023-12-29T03:48:03;102561.06;;;11.95
79632;BMP280;69108;41.120;16.874;2023-12-29T03:50:30;102559.13;;;11.95
79632;BMP280;69108;41.120;16.874;2023-12-29T03:52:58;102564.91;;;11.97
79632;BMP280;69108;41.120;16.874;2023-12-29T03:55:25;102567.25;;;11.95
79632;BMP280;69108;41.120;16.874;2023-12-29T03:57:51;102573.44;;;11.96
79632;BMP280;69108;41.120;16.874;2023-12-29T04:00:18;102570.75;;;11.96
79632;BMP280;69108;41.120;16.874;2023-12-29T04:02:44;102569.97;;;11.95
79632;BMP280;69108;41.120;16.874;2023-12-29T04:05:11;102568.78;;;11.96
79632;BMP280;69108;41.120;16.874;2023-12-29T04:07:39;102566.88;;;11.97
79632;BMP280;69108;41.120;16.874;2023-12-29T04:10:07;102563.38;;;11.96
79632;BMP280;69108;41.120;16.874;2023-12-29T04:12:34;102564.16;;;11.97
79632;BMP280;69108;41.120;16.874;2023-12-29T04:15:01;102566.47;;;11.98
79632;BMP280;69108;41.120;16.874;2023-12-29T04:17:28;102573.47;;;11.99
79632;BMP280;69108;41.120;16.874;2023-12-29T04:19:55;102563.81;;;12.02
79632;BMP280;69108;41.120;16.874;2023-12-29T04:22:22;102573.84;;;12.05
79632;BMP280;69108;41.120;16.874;2023-12-29T04:24:49;102579.66;;;12.07
79632;BMP280;69108;41.120;16.874;2023-12-29T04:27:17;102577.00;;;12.10
79632;BMP280;69108;41.120;16.874;2023-12-29T04:29:44;102567.31;;;12.09
79632;BMP280;69108;41.120;16.874;2023-12-29T04:32:11;102567.31;;;12.13
79632;BMP280;69108;41.120;16.874;2023-12-29T04:34:38;102575.84;;;12.15
79632;BMP280;69108;41.120;16.874;2023-12-29T04:37:05;102576.22;;;12.17
79632;BMP280;69108;41.120;16.874;2023-12-29T04:39:31;102578.53;;;12.18
79632;BMP280;69108;41.120;16.874;2023-12-29T04:41:59;102582.03;;;12.19
79632;BMP280;69108;41.120;16.874;2023-12-29T04:44:27;102585.91;;;12.21
79632;BMP280;69108;41.120;16.874;2023-12-29T04:46:54;102580.13;;;12.23
79632;BMP280;69108;41.120;16.874;2023-12-29T04:49:20;102581.69;;;12.24
79632;BMP280;69108;41.120;16.874;2023-12-29T04:51:47;102588.25;;;12.26
79632;BMP280;69108;41.120;16.874;2023-12-29T04:54:14;102580.50;;;12.28
79632;BMP280;69108;41.120;16.874;2023-12-29T04:56:41;102580.94;;;12.30
79632;BMP280;69108;41.120;16.874;2023-12-29T04:59:08;102579.38;;;12.33
79632;BMP280;69108;41.120;16.874;2023-12-29T05:01:36;102584.41;;;12.34
79632;BMP280;69108;41.120;16.874;2023-12-29T05:04:03;102586.75;;;12.36
79632;BMP280;69108;41.120;16.874;2023-12-29T05:06:30;102582.84;;;12.37
79632;BMP280;69108;41.120;16.874;2023-12-29T05:08:57;102584.41;;;12.38
79632;BMP280;69108;41.120;16.874;2023-12-29T05:11:24;102585.97;;;12.39
79632;BMP280;69108;41.120;16.874;2023-12-29T05:13:51;102592.56;;;12.41
79632;BMP280;69108;41.120;16.874;2023-12-29T05:16:17;102588.66;;;12.42
79632;BMP280;69108;41.120;16.874;2023-12-29T05:18:46;102594.09;;;12.42
79632;BMP280;69108;41.120;16.874;2023-12-29T05:21:16;102597.97;;;12.45
79632;BMP280;69108;41.120;16.874;2023-12-29T05:23:43;102598.38;;;12.47
79632;BMP280;69108;41.120;16.874;2023-12-29T05:26:10;102598.38;;;12.47
79632;BMP280;69108;41.120;16.874;2023-12-29T05:28:37;102601.06;;;12.47
79632;BMP280;69108;41.120;16.874;2023-12-29T05:31:04;102608.03;;;12.48
79632;BMP280;69108;41.120;16.874;2023-12-29T05:33:31;102612.31;;;12.49
79632;BMP280;69108;41.120;16.874;2023-12-29T05:36:05;102615.03;;;12.49
79632;BMP280;69108;41.120;16.874;2023-12-29T05:38:33;102614.66;;;12.51
79632;BMP280;69108;41.120;16.874;2023-12-29T05:41:00;102617.72;;;12.53
79632;BMP280;69108;41.120;16.874;2023-12-29T05:43:28;102618.50;;;12.53
79632;BMP280;69108;41.120;16.874;2023-12-29T05:45:55;102623.19;;;12.56
79632;BMP280;69108;41.120;16.874;2023-12-29T05:48:22;102625.09;;;12.56
79632;BMP280;69108;41.120;16.874;2023-12-29T05:50:49;102619.31;;;12.57
79632;BMP280;69108;41.120;16.874;2023-12-29T05:53:17;102623.56;;;12.58
79632;BMP280;69108;41.120;16.874;2023-12-29T05:55:44;102619.69;;;12.59
79632;BMP280;69108;41.120;16.874;2023-12-29T05:58:12;102609.22;;;12.54
79632;BMP280;69108;41.120;16.874;2023-12-29T06:00:38;102612.31;;;12.60
79632;BMP280;69108;41.120;16.874;2023-12-29T06:03:06;102611.16;;;12.57
79632;BMP280;69108;41.120;16.874;2023-12-29T06:05:33;102620.47;;;12.63
79632;BMP280;69108;41.120;16.874;2023-12-29T06:07:59;102621.25;;;12.64
79632;BMP280;69108;41.120;16.874;2023-12-29T06:10:28;102623.56;;;12.65
79632;BMP280;69108;41.120;16.874;2023-12-29T06:12:54;102623.56;;;12.65
79632;BMP280;69108;41.120;16.874;2023-12-29T06:15:21;102620.47;;;12.67
79632;BMP280;69108;41.120;16.874;2023-12-29T06:17:48;102621.25;;;12.67
79632;BMP280;69108;41.120;16.874;2023-12-29T06:20:15;102620.50;;;12.70
79632;BMP280;69108;41.120;16.874;2023-12-29T06:22:42;102610.44;;;12.71
79632;BMP280;69108;41.120;16.874;2023-12-29T06:25:09;102620.84;;;12.72
79632;BMP280;69108;41.120;16.874;2023-12-29T06:27:39;102617.00;;;12.73
79632;BMP280;69108;41.120;16.874;2023-12-29T06:30:07;102618.19;;;12.76
79632;BMP280;69108;41.120;16.874;2023-12-29T06:32:34;102621.66;;;12.76
79632;BMP280;69108;41.120;16.874;2023-12-29T06:35:01;102623.59;;;12.79
79632;BMP280;69108;41.120;16.874;2023-12-29T06:37:28;102617.00;;;12.80
79632;BMP280;69108;41.120;16.874;2023-12-29T06:39:55;102613.13;;;12.81
79632;BMP280;69108;41.120;16.874;2023-12-29T06:42:22;102600.34;;;12.71
79632;BMP280;69108;41.120;16.874;2023-12-29T06:44:50;102615.47;;;12.83
79632;BMP280;69108;41.120;16.874;2023-12-29T06:47:17;102622.03;;;12.85
79632;BMP280;69108;41.120;16.874;2023-12-29T06:49:44;102621.66;;;12.87
79632;BMP280;69108;41.120;16.874;2023-12-29T06:52:11;102624.75;;;12.89
79632;BMP280;69108;41.120;16.874;2023-12-29T06:54:38;102628.25;;;12.89
79632;BMP280;69108;41.120;16.874;2023-12-29T06:57:06;102630.56;;;12.91
79632;BMP280;69108;41.120;16.874;2023-12-29T06:59:33;102628.66;;;12.91
79632;BMP280;69108;41.120;16.874;2023-12-29T07:02:01;102630.97;;;12.93
79632;BMP280;69108;41.120;16.874;2023-12-29T07:04:28;102630.56;;;12.94
79632;BMP280;69108;41.120;16.874;2023-12-29T07:06:55;102632.13;;;12.95
79632;BMP280;69108;41.120;16.874;2023-12-29T07:09:22;102633.69;;;12.96
79632;BMP280;69108;41.120;16.874;2023-12-29T07:11:49;102627.47;;;12.99
79632;BMP280;69108;41.120;16.874;2023-12-29T07:14:16;102627.47;;;12.99
79632;BMP280;69108;41.120;16.874;2023-12-29T07:16:43;102631.38;;;13.02
79632;BMP280;69108;41.120;16.874;2023-12-29T07:19:12;102630.63;;;13.05
79632;BMP280;69108;41.120;16.874;2023-12-29T07:21:39;102628.25;;;13.07
79632;BMP280;69108;41.120;16.874;2023-12-29T07:24:06;102629.78;;;13.08
79632;BMP280;69108;41.120;16.874;2023-12-29T07:26:33;102624.00;;;13.13
79632;BMP280;69108;41.120;16.874;2023-12-29T07:29:00;102629.03;;;13.14
79632;BMP280;69108;41.120;16.874;2023-12-29T07:31:27;102630.97;;;13.17
79632;BMP280;69108;41.120;16.874;2023-12-29T07:33:54;102632.13;;;13.20
79632;BMP280;69108;41.120;16.874;2023-12-29T07:36:22;102638.34;;;13.24
79632;BMP280;69108;41.120;16.874;2023-12-29T07:38:49;102636.78;;;13.26
79632;BMP280;69108;41.120;16.874;2023-12-29T07:41:16;102635.63;;;13.27
79632;BMP280;69108;41.120;16.874;2023-12-29T07:43:44;102633.66;;;13.31
79632;BMP280;69108;41.120;16.874;2023-12-29T07:46:10;102623.22;;;13.23
79632;BMP280;69108;41.120;16.874;2023-12-29T07:48:37;102646.84;;;13.37
79632;BMP280;69108;41.120;16.874;2023-12-29T07:51:05;102636.78;;;13.37
79632;BMP280;69108;41.120;16.874;2023-12-29T07:53:34;102639.84;;;13.46
79632;BMP280;69108;41.120;16.874;2023-12-29T07:56:01;102649.53;;;13.51
79632;BMP280;69108;41.120;16.874;2023-12-29T07:58:27;102646.03;;;13.54
79632;BMP280;69108;41.120;16.874;2023-12-29T08:00:54;102655.75;;;13.58
79632;BMP280;69108;41.120;16.874;2023-12-29T08:03:21;102656.91;;;13.61
79632;BMP280;69108;41.120;16.874;2023-12-29T08:05:48;102644.84;;;13.65
79632;BMP280;69108;41.120;16.874;2023-12-29T08:08:15;102644.50;;;13.67
79632;BMP280;69108;41.120;16.874;2023-12-29T08:10:43;102646.78;;;13.72
79632;BMP280;69108;41.120;16.874;2023-12-29T08:13:10;102633.22;;;13.68
79632;BMP280;69108;41.120;16.874;2023-12-29T08:15:37;102647.53;;;13.79
79632;BMP280;69108;41.120;16.874;2023-12-29T08:18:05;102641.75;;;13.81
79632;BMP280;69108;41.120;16.874;2023-12-29T08:20:32;102638.59;;;13.86
79632;BMP280;69108;41.120;16.874;2023-12-29T08:22:58;102646.34;;;13.91
79632;BMP280;69108;41.120;16.874;2023-12-29T08:25:28;102647.09;;;13.95
79632;BMP280;69108;41.120;16.874;2023-12-29T08:27:57;102654.47;;;14.01
79632;BMP280;69108;41.120;16.874;2023-12-29T08:30:24;102653.66;;;14.08
79632;BMP280;69108;41.120;16.874;2023-12-29T08:32:50;102647.81;;;14.13
79632;BMP280;69108;41.120;16.874;2023-12-29T08:35:17;102653.59;;;14.18
79632;BMP280;69108;41.120;16.874;2023-12-29T08:37:44;102651.66;;;14.22
79632;BMP280;69108;41.120;16.874;2023-12-29T08:40:11;102653.22;;;14.20
79632;BMP280;69108;41.120;16.874;2023-12-29T08:42:38;102656.66;;;14.27
79632;BMP280;69108;41.120;16.874;2023-12-29T08:45:07;102665.16;;;14.33
79632;BMP280;69108;41.120;16.874;2023-12-29T08:47:34;102665.94;;;14.37
79632;BMP280;69108;41.120;16.874;2023-12-29T08:50:01;102653.09;;;14.41
79632;BMP280;69108;41.120;16.874;2023-12-29T08:52:29;102653.84;;;14.45
79632;BMP280;69108;41.120;16.874;2023-12-29T08:54:56;102650.00;;;14.39
79632;BMP280;69108;41.120;16.874;2023-12-29T08:57:23;102658.06;;;14.53
79632;BMP280;69108;41.120;16.874;2023-12-29T08:59:49;102658.44;;;14.59
79632;BMP280;69108;41.120;16.874;2023-12-29T09:02:18;102632.09;;;14.45
79632;BMP280;69108;41.120;16.874;2023-12-29T09:04:44;102657.16;;;14.70
79632;BMP280;69108;41.120;16.874;2023-12-29T09:07:11;102656.34;;;14.77
79632;BMP280;69108;41.120;16.874;2023-12-29T09:09:38;102662.91;;;14.83
79632;BMP280;69108;41.120;16.874;2023-12-29T09:12:05;102662.09;;;14.89
79632;BMP280;69108;41.120;16.874;2023-12-29T09:14:32;102670.63;;;14.91
79632;BMP280;69108;41.120;16.874;2023-12-29T09:16:59;102661.66;;;14.94
79632;BMP280;69108;41.120;16.874;2023-12-29T09:19:28;102673.31;;;14.98
79632;BMP280;69108;41.120;16.874;2023-12-29T09:21:54;102660.50;;;14.95
79632;BMP280;69108;41.120;16.874;2023-12-29T09:24:22;102663.16;;;15.02
79632;BMP280;69108;41.120;16.874;2023-12-29T09:26:48;102667.00;;;15.08
79632;BMP280;69108;41.120;16.874;2023-12-29T09:29:16;102669.28;;;15.13
79632;BMP280;69108;41.120;16.874;2023-12-29T09:31:43;102668.47;;;15.16
79632;BMP280;69108;41.120;16.874;2023-12-29T09:34:09;102659.84;;;15.21
79632;BMP280;69108;41.120;16.874;2023-12-29T09:36:38;102662.91;;;15.27
79632;BMP280;69108;41.120;16.874;2023-12-29T09:39:04;102657.09;;;15.29
79632;BMP280;69108;41.120;16.874;2023-12-29T09:41:33;102663.66;;;15.35
79632;BMP280;69108;41.120;16.874;2023-12-29T09:44:01;102650.75;;;15.39
79632;BMP280;69108;41.120;16.874;2023-12-29T09:46:32;102649.56;;;15.43
79632;BMP280;69108;41.120;16.874;2023-12-29T09:49:03;102639.81;;;15.46
79632;BMP280;69108;41.120;16.874;2023-12-29T09:51:30;102638.66;;;15.47
79632;BMP280;69108;41.120;16.874;2023-12-29T09:53:59;102637.13;;;15.42
79632;BMP280;69108;41.120;16.874;2023-12-29T09:56:27;102645.22;;;15.49
79632;BMP280;69108;41.120;16.874;2023-12-29T09:58:54;102640.50;;;15.50
79632;BMP280;69108;41.120;16.874;2023-12-29T10:01:21;102626.16;;;15.49
79632;BMP280;69108;41.120;16.874;2023-12-29T10:03:48;102631.97;;;15.51
79632;BMP280;69108;41.120;16.874;2023-12-29T10:06:19;102628.84;;;15.53
79632;BMP280;69108;41.120;16.874;2023-12-29T10:08:47;102624.56;;;15.52
79632;BMP280;69108;41.120;16.874;2023-12-29T10:11:18;102611.41;;;15.47
79632;BMP280;69108;41.120;16.874;2023-12-29T10:13:49;102612.91;;;15.51
79632;BMP280;69108;41.120;16.874;2023-12-29T10:16:24;102605.41;;;15.59
79632;BMP280;69108;41.120;16.874;2023-12-29T10:19:00;102599.47;;;15.67
79632;BMP280;69108;41.120;16.874;2023-12-29T10:21:36;102590.44;;;15.74
79632;BMP280;69108;41.120;16.874;2023-12-29T10:24:12;102598.13;;;15.82
79632;BMP280;69108;41.120;16.874;2023-12-29T10:26:44;102596.47;;;15.88
79632;BMP280;69108;41.120;16.874;2023-12-29T10:29:12;102585.56;;;15.92
79632;BMP280;69108;41.120;16.874;2023-12-29T10:31:38;102583.63;;;15.89
79632;BMP280;69108;41.120;16.874;2023-12-29T10:34:21;102582.00;;;15.95
79632;BMP280;69108;41.120;16.874;2023-12-29T10:36:54;102574.56;;;15.95
79632;BMP280;69108;41.120;16.874;2023-12-29T10:39:21;102583.53;;;15.96
79632;BMP280;69108;41.120;16.874;2023-12-29T10:41:49;102571.94;;;15.92
79632;BMP280;69108;41.120;16.874;2023-12-29T10:44:16;102569.91;;;15.96
79632;BMP280;69108;41.120;16.874;2023-12-29T10:46:44;102567.19;;;15.96
79632;BMP280;69108;41.120;16.874;2023-12-29T10:49:12;102558.63;;;15.97
79632;BMP280;69108;41.120;16.874;2023-12-29T10:51:40;102551.94;;;15.98
79632;BMP280;69108;41.120;16.874;2023-12-29T10:54:06;102549.13;;;16.05
79632;BMP280;69108;41.120;16.874;2023-12-29T10:56:33;102551.00;;;16.12
79632;BMP280;69108;41.120;16.874;2023-12-29T10:59:03;102545.84;;;16.17
79632;BMP280;69108;41.120;16.874;2023-12-29T11:01:30;102539.47;;;16.24
79632;BMP280;69108;41.120;16.874;2023-12-29T11:03:59;102522.31;;;16.27
79632;BMP280;69108;41.120;16.874;2023-12-29T11:06:26;102521.47;;;16.30
79632;BMP280;69108;41.120;16.874;2023-12-29T11:08:54;102522.31;;;16.27
79632;BMP280;69108;41.120;16.874;2023-12-29T11:11:21;102522.31;;;16.27
79632;BMP280;69108;41.120;16.874;2023-12-29T11:13:48;102521.13;;;16.28
79632;BMP280;69108;41.120;16.874;2023-12-29T11:16:16;102511.34;;;16.31
79632;BMP280;69108;41.120;16.874;2023-12-29T11:18:47;102503.94;;;16.31
79632;BMP280;69108;41.120;16.874;2023-12-29T11:21:16;102501.22;;;16.31
79632;BMP280;69108;41.120;16.874;2023-12-29T11:23:43;102498.19;;;16.26
79632;BMP280;69108;41.120;16.874;2023-12-29T11:26:11;102492.78;;;16.22
79632;BMP280;69108;41.120;16.874;2023-12-29T11:28:39;102492.00;;;16.22
79632;BMP280;69108;41.120;16.874;2023-12-29T11:31:05;102492.78;;;16.22
79632;BMP280;69108;41.120;16.874;2023-12-29T11:33:40;102485.91;;;16.14
79632;BMP280;69108;41.120;16.874;2023-12-29T11:36:11;102487.44;;;16.15
79632;BMP280;69108;41.120;16.874;2023-12-29T11:38:49;102487.44;;;16.15
79632;BMP280;69108;41.120;16.874;2023-12-29T11:41:23;102476.94;;;16.13
79632;BMP280;69108;41.120;16.874;2023-12-29T11:43:58;102471.94;;;16.12
79632;BMP280;69108;41.120;16.874;2023-12-29T11:46:35;102475.78;;;16.14
79632;BMP280;69108;41.120;16.874;2023-12-29T11:49:04;102466.69;;;16.21
79632;BMP280;69108;41.120;16.874;2023-12-29T11:51:33;102463.09;;;16.28
79632;BMP280;69108;41.120;16.874;2023-12-29T11:54:00;102459.34;;;16.41
79632;BMP280;69108;41.120;16.874;2023-12-29T11:56:34;102459.81;;;16.59
79632;BMP280;69108;41.120;16.874;2023-12-29T11:59:17;102452.22;;;16.67
79632;BMP280;69108;41.120;16.874;2023-12-29T12:01:46;102446.00;;;16.66
79632;BMP280;69108;41.120;16.874;2023-12-29T12:04:40;102449.94;;;16.65
79632;BMP280;69108;41.120;16.874;2023-12-29T12:07:08;102415.16;;;16.50
79632;BMP280;69108;41.120;16.874;2023-12-29T12:09:35;102444.13;;;16.63
79632;BMP280;69108;41.120;16.874;2023-12-29T12:12:02;102439.97;;;16.55
79632;BMP280;69108;41.120;16.874;2023-12-29T12:14:47;102436.28;;;16.46
79632;BMP280;69108;41.120;16.874;2023-12-29T12:17:27;102433.63;;;16.19
79632;BMP280;69108;41.120;16.874;2023-12-29T12:19:58;102448.09;;;16.16
79632;BMP280;69108;41.120;16.874;2023-12-29T12:22:25;102441.19;;;16.11
79632;BMP280;69108;41.120;16.874;2023-12-29T12:24:56;102438.69;;;15.97
79632;BMP280;69108;41.120;16.874;2023-12-29T12:27:23;102438.59;;;16.01
79632;BMP280;69108;41.120;16.874;2023-12-29T12:29:53;102429.25;;;16.02
79632;BMP280;69108;41.120;16.874;2023-12-29T12:32:22;102438.16;;;16.06
79632;BMP280;69108;41.120;16.874;2023-12-29T12:34:49;102426.53;;;16.02
79632;BMP280;69108;41.120;16.874;2023-12-29T12:37:21;102426.88;;;16.04
79632;BMP280;69108;41.120;16.874;2023-12-29T12:39:48;102423.81;;;16.02
79632;BMP280;69108;41.120;16.874;2023-12-29T12:42:15;102429.19;;;16.05
79632;BMP280;69108;41.120;16.874;2023-12-29T12:44:48;102431.25;;;15.98
79632;BMP280;69108;41.120;16.874;2023-12-29T12:47:23;102424.63;;;15.99
79632;BMP280;69108;41.120;16.874;2023-12-29T12:49:51;102423.84;;;15.98
79632;BMP280;69108;41.120;16.874;2023-12-29T12:52:19;102422.72;;;15.96
79632;BMP280;69108;41.120;16.874;2023-12-29T12:54:47;102419.22;;;15.95
79632;BMP280;69108;41.120;16.874;2023-12-29T12:57:18;102428.22;;;15.92
79632;BMP280;69108;41.120;16.874;2023-12-29T12:59:46;102424.78;;;15.92
79632;BMP280;69108;41.120;16.874;2023-12-29T13:02:13;102424.78;;;15.92
79632;BMP280;69108;41.120;16.874;2023-12-29T13:04:40;102406.22;;;15.83
79632;BMP280;69108;41.120;16.874;2023-12-29T13:07:08;102414.75;;;15.85
79632;BMP280;69108;41.120;16.874;2023-12-29T13:09:37;102419.75;;;15.87
79632;BMP280;69108;41.120;16.874;2023-12-29T13:12:08;102410.53;;;15.81
79632;BMP280;69108;41.120;16.874;2023-12-29T13:14:35;102415.53;;;15.86
79632;BMP280;69108;41.120;16.874;2023-12-29T13:17:06;102396.19;;;15.77
79632;BMP280;69108;41.120;16.874;2023-12-29T13:19:33;102413.13;;;15.88
79632;BMP280;69108;41.120;16.874;2023-12-29T13:22:00;102413.13;;;15.88
79632;BMP280;69108;41.120;16.874;2023-12-29T13:24:28;102407.66;;;15.88
79632;BMP280;69108;41.120;16.874;2023-12-29T13:27:02;102411.53;;;15.90
79632;BMP280;69108;41.120;16.874;2023-12-29T13:29:31;102410.38;;;15.91
79632;BMP280;69108;41.120;16.874;2023-12-29T13:32:00;102404.91;;;15.91
79632;BMP280;69108;41.120;16.874;2023-12-29T13:34:33;102401.41;;;15.91
79632;BMP280;69108;41.120;16.874;2023-12-29T13:37:07;102404.13;;;15.91
79632;BMP280;69108;41.120;16.874;2023-12-29T13:39:45;102402.22;;;15.88
79632;BMP280;69108;41.120;16.874;2023-12-29T13:42:20;102406.50;;;15.89
79632;BMP280;69108;41.120;16.874;2023-12-29T13:44:49;102397.94;;;15.87
79632;BMP280;69108;41.120;16.874;2023-12-29T13:47:17;102404.63;;;15.86
79632;BMP280;69108;41.120;16.874;2023-12-29T13:49:44;102403.84;;;15.85